createdAt,value
2019-04-25T00:00:38.460Z,18.90
2019-04-25T00:01:38.379Z,19.10
2019-04-25T00:02:38.550Z,19.50
2019-04-25T00:03:38.368Z,19.20
2019-04-25T00:04:38.751Z,18.40
2019-04-25T00:05:38.755Z,19.90
2019-04-25T00:06:38.623Z,19.00
2019-04-25T00:07:38.736Z,18.90
2019-04-25T00:08:38.792Z,19.70
2019-04-25T00:09:38.950Z,19.20
2019-04-25T00:10:38.104Z,19.30
2019-04-25T00:11:38.088Z,19.20
2019-04-25T00:12:38.059Z,18.20
2019-04-25T00:13:38.101Z,18.30
2019-04-25T00:14:38.121Z,20.80
2019-04-25T00:15:38.295Z,19.70
2019-04-25T00:16:38.690Z,19.70
2019-04-25T00:17:38.607Z,19.10
2019-04-25T00:18:38.659Z,19.40
2019-04-25T00:19:38.703Z,19.20
2019-04-25T00:20:38.834Z,19.10
2019-04-25T00:21:38.240Z,21.40
2019-04-25T00:22:39.199Z,20.30
2019-04-25T00:23:39.385Z,19.90
2019-04-25T00:24:39.581Z,21.20
2019-04-25T00:25:37.952Z,19.20
2019-04-25T00:26:37.943Z,21.00
2019-04-25T00:27:37.890Z,20.00
2019-04-25T00:28:37.886Z,20.70
2019-04-25T00:29:37.893Z,21.30
2019-04-25T00:30:37.901Z,21.20
2019-04-25T00:31:37.835Z,20.40
2019-04-25T00:32:37.838Z,20.60
2019-04-25T00:33:37.844Z,22.10
2019-04-25T00:34:37.843Z,21.20
2019-04-25T00:35:37.831Z,20.30
2019-04-25T00:36:39.076Z,20.60
2019-04-25T00:37:37.808Z,20.40
2019-04-25T00:38:37.787Z,21.20
2019-04-25T00:39:37.810Z,19.90
2019-04-25T00:40:37.830Z,20.20
2019-04-25T00:41:37.797Z,20.80
2019-04-25T00:42:37.746Z,20.20
2019-04-25T00:43:37.727Z,20.30
2019-04-25T00:44:37.723Z,21.10
2019-04-25T00:45:37.703Z,22.20
2019-04-25T00:46:37.712Z,21.50
2019-04-25T00:47:37.714Z,22.20
2019-04-25T00:48:37.678Z,23.00
2019-04-25T00:49:37.663Z,21.30
2019-04-25T00:50:37.664Z,22.40
2019-04-25T00:51:37.637Z,22.40
2019-04-25T00:52:37.641Z,22.50
2019-04-25T00:53:37.626Z,24.60
2019-04-25T00:54:37.643Z,22.50
2019-04-25T00:55:37.627Z,23.20
2019-04-25T00:56:37.610Z,23.10
2019-04-25T00:57:37.610Z,22.70
2019-04-25T00:58:37.598Z,22.60
2019-04-25T00:59:37.563Z,23.50
2019-04-25T01:00:37.536Z,23.10
2019-04-25T01:01:37.537Z,22.40
2019-04-25T01:02:37.573Z,22.10
2019-04-25T01:03:37.512Z,22.80
2019-04-25T01:04:37.551Z,24.40
2019-04-25T01:05:37.526Z,23.20
2019-04-25T01:06:37.496Z,22.80
2019-04-25T01:07:37.517Z,23.00
2019-04-25T01:08:37.554Z,22.40
2019-04-25T01:09:37.452Z,22.80
2019-04-25T01:10:37.433Z,22.80
2019-04-25T01:11:37.531Z,22.60
2019-04-25T01:12:37.458Z,22.70
2019-04-25T01:13:37.467Z,23.20
2019-04-25T01:14:37.388Z,23.00
2019-04-25T01:15:37.405Z,22.60
2019-04-25T01:16:37.367Z,23.10
2019-04-25T01:17:37.403Z,22.80
2019-04-25T01:18:37.505Z,23.40
2019-04-25T01:19:37.385Z,23.10
2019-04-25T01:20:37.359Z,23.20
2019-04-25T01:21:37.354Z,22.50
2019-04-25T01:22:37.339Z,23.50
2019-04-25T01:23:37.317Z,23.40
2019-04-25T01:24:37.361Z,23.70
2019-04-25T01:25:40.898Z,24.00
2019-04-25T01:26:38.280Z,24.40
2019-04-25T01:27:37.350Z,24.00
2019-04-25T01:28:37.293Z,23.80
2019-04-25T01:29:37.262Z,22.80
2019-04-25T01:30:37.664Z,23.10
2019-04-25T01:31:37.272Z,22.30
2019-04-25T01:32:37.282Z,23.00
2019-04-25T01:33:37.231Z,22.10
2019-04-25T01:34:37.234Z,22.90
2019-04-25T01:35:37.266Z,23.10
2019-04-25T01:36:37.182Z,22.30
2019-04-25T01:37:37.157Z,22.50
2019-04-25T01:38:37.167Z,23.70
2019-04-25T01:39:37.128Z,22.60
2019-04-25T01:40:37.179Z,22.30
2019-04-25T01:41:37.136Z,23.10
2019-04-25T01:42:37.113Z,23.30
2019-04-25T01:43:37.128Z,23.90
2019-04-25T01:44:37.104Z,22.70
2019-04-25T01:45:37.079Z,23.00
2019-04-25T01:46:37.124Z,23.50
2019-04-25T01:47:37.072Z,22.90
2019-04-25T01:48:37.080Z,23.10
2019-04-25T01:49:37.027Z,23.20
2019-04-25T01:50:37.012Z,23.20
2019-04-25T01:51:37.037Z,23.50
2019-04-25T01:52:37.026Z,23.10
2019-04-25T01:53:37.005Z,23.60
2019-04-25T01:54:37.034Z,23.10
2019-04-25T01:55:37.530Z,23.20
2019-04-25T01:56:36.994Z,23.70
2019-04-25T01:57:36.996Z,23.90
2019-04-25T01:58:36.943Z,23.90
2019-04-25T01:59:36.913Z,23.80
2019-04-25T02:00:37.029Z,24.40
2019-04-25T02:01:36.930Z,23.30
2019-04-25T02:02:36.998Z,24.50
2019-04-25T02:03:36.935Z,25.30
2019-04-25T02:04:36.903Z,24.40
2019-04-25T02:05:36.885Z,24.50
2019-04-25T02:06:36.857Z,25.20
2019-04-25T02:07:36.904Z,25.00
2019-04-25T02:08:36.902Z,24.50
2019-04-25T02:09:36.901Z,25.20
2019-04-25T02:10:36.830Z,24.70
2019-04-25T02:11:36.804Z,26.90
2019-04-25T02:12:37.535Z,26.20
2019-04-25T02:13:36.794Z,25.20
2019-04-25T02:14:36.780Z,24.60
2019-04-25T02:15:36.766Z,24.30
2019-04-25T02:16:36.766Z,26.10
2019-04-25T02:17:36.745Z,25.50
2019-04-25T02:18:36.722Z,25.30
2019-04-25T02:19:36.771Z,25.10
2019-04-25T02:20:36.712Z,24.80
2019-04-25T02:21:36.723Z,26.00
2019-04-25T02:22:37.541Z,25.90
2019-04-25T02:23:36.696Z,25.60
2019-04-25T02:24:36.735Z,26.60
2019-04-25T02:25:36.654Z,27.30
2019-04-25T02:26:36.683Z,26.60
2019-04-25T02:27:36.674Z,26.90
2019-04-25T02:28:36.688Z,26.90
2019-04-25T02:29:36.617Z,25.70
2019-04-25T02:30:36.814Z,26.90
2019-04-25T02:31:36.717Z,26.30
2019-04-25T02:32:37.200Z,26.40
2019-04-25T02:33:36.705Z,27.00
2019-04-25T02:34:36.574Z,26.80
2019-04-25T02:35:36.547Z,26.80
2019-04-25T02:36:36.661Z,25.90
2019-04-25T02:37:36.577Z,26.20
2019-04-25T02:38:36.767Z,26.90
2019-04-25T02:39:37.376Z,26.60
2019-04-25T02:40:36.513Z,26.30
2019-04-25T02:41:36.487Z,26.10
2019-04-25T02:42:36.512Z,27.10
2019-04-25T02:43:36.491Z,26.70
2019-04-25T02:44:36.432Z,26.10
2019-04-25T02:45:36.428Z,25.60
2019-04-25T02:46:37.202Z,27.20
2019-04-25T02:47:36.423Z,26.50
2019-04-25T02:48:36.448Z,26.30
2019-04-25T02:49:39.423Z,26.70
2019-04-25T02:50:36.401Z,26.80
2019-04-25T02:51:36.427Z,27.20
2019-04-25T02:52:36.377Z,27.80
2019-04-25T02:53:37.380Z,31.00
2019-04-25T02:54:36.381Z,28.30
2019-04-25T02:55:37.649Z,26.70
2019-04-25T02:56:38.791Z,26.50
2019-04-25T02:57:36.336Z,26.40
2019-04-25T02:58:36.302Z,27.40
2019-04-25T02:59:37.033Z,26.80
2019-04-25T03:00:49.779Z,27.60
2019-04-25T03:01:37.261Z,26.80
2019-04-25T03:02:37.041Z,27.00
2019-04-25T03:03:36.247Z,28.00
2019-04-25T03:04:37.050Z,26.60
2019-04-25T03:05:36.241Z,27.80
2019-04-25T03:06:36.256Z,27.20
2019-04-25T03:07:36.206Z,27.40
2019-04-25T03:08:36.180Z,27.70
2019-04-25T03:09:36.272Z,27.20
2019-04-25T03:10:36.190Z,27.00
2019-04-25T03:11:36.214Z,27.00
2019-04-25T03:12:36.863Z,27.00
2019-04-25T03:13:36.163Z,26.40
2019-04-25T03:14:36.117Z,26.90
2019-04-25T03:15:36.482Z,27.40
2019-04-25T03:16:36.204Z,27.70
2019-04-25T03:17:36.195Z,26.30
2019-04-25T03:18:36.108Z,26.00
2019-04-25T03:19:36.056Z,25.70
2019-04-25T03:20:36.557Z,25.90
2019-04-25T03:21:36.100Z,25.90
2019-04-25T03:22:36.060Z,26.40
2019-04-25T03:23:36.038Z,26.90
2019-04-25T03:24:36.062Z,26.10
2019-04-25T03:25:36.039Z,26.00
2019-04-25T03:26:40.249Z,25.70
2019-04-25T03:27:36.036Z,25.20
2019-04-25T03:28:36.064Z,24.40
2019-04-25T03:29:35.973Z,25.00
2019-04-25T03:30:36.088Z,25.30
2019-04-25T03:31:36.047Z,23.10
2019-04-25T03:32:35.954Z,22.50
2019-04-25T03:33:38.434Z,21.10
2019-04-25T03:34:35.919Z,21.70
2019-04-25T03:35:35.949Z,21.00
2019-04-25T03:36:35.925Z,20.40
2019-04-25T03:37:35.882Z,18.80
2019-04-25T03:38:35.845Z,19.90
2019-04-25T03:39:35.848Z,21.60
2019-04-25T03:40:35.854Z,18.90
2019-04-25T03:41:35.835Z,18.10
2019-04-25T03:42:35.888Z,20.70
2019-04-25T03:43:35.805Z,20.20
2019-04-25T03:44:35.801Z,21.20
2019-04-25T03:45:35.860Z,17.90
2019-04-25T03:46:35.787Z,18.00
2019-04-25T03:47:35.786Z,17.80
2019-04-25T03:48:37.046Z,17.40
2019-04-25T03:49:35.737Z,17.10
2019-04-25T03:50:35.748Z,17.20
2019-04-25T03:51:35.721Z,17.70
2019-04-25T03:52:35.763Z,17.10
2019-04-25T03:53:35.707Z,15.90
2019-04-25T03:54:35.800Z,19.20
2019-04-25T03:55:35.921Z,17.50
2019-04-25T03:56:35.835Z,15.60
2019-04-25T03:57:35.697Z,15.10
2019-04-25T03:58:35.800Z,15.60
2019-04-25T03:59:35.680Z,15.40
2019-04-25T04:00:36.396Z,15.50
2019-04-25T04:01:35.663Z,14.80
2019-04-25T04:02:35.635Z,19.10
2019-04-25T04:03:36.733Z,19.60
2019-04-25T04:04:35.637Z,16.60
2019-04-25T04:05:36.372Z,14.90
2019-04-25T04:06:35.558Z,16.70
2019-04-25T04:07:35.667Z,16.50
2019-04-25T04:08:35.748Z,14.30
2019-04-25T04:09:35.576Z,14.10
2019-04-25T04:10:35.571Z,13.80
2019-04-25T04:11:35.529Z,15.80
2019-04-25T04:12:35.685Z,17.50
2019-04-25T04:13:35.505Z,16.10
2019-04-25T04:14:35.511Z,13.40
2019-04-25T04:15:35.478Z,14.30
2019-04-25T04:16:35.784Z,13.10
2019-04-25T04:17:35.482Z,11.20
2019-04-25T04:18:35.432Z,10.70
2019-04-25T04:19:35.426Z,10.70
2019-04-25T04:20:35.446Z,11.60
2019-04-25T04:21:35.440Z,12.10
2019-04-25T04:22:35.396Z,10.00
2019-04-25T04:23:35.425Z,11.70
2019-04-25T04:24:35.369Z,10.80
2019-04-25T04:25:35.356Z,10.50
2019-04-25T04:26:35.351Z,10.20
2019-04-25T04:27:35.580Z,9.60
2019-04-25T04:28:35.359Z,9.00
2019-04-25T04:29:35.371Z,8.50
2019-04-25T04:30:35.315Z,9.30
2019-04-25T04:31:35.350Z,8.30
2019-04-25T04:32:35.383Z,7.40
2019-04-25T04:33:35.474Z,8.60
2019-04-25T04:34:37.446Z,9.60
2019-04-25T04:35:36.334Z,8.40
2019-04-25T04:36:36.074Z,6.90
2019-04-25T04:37:35.246Z,8.10
2019-04-25T04:38:35.456Z,6.80
2019-04-25T04:39:35.266Z,6.70
2019-04-25T04:40:36.202Z,8.10
2019-04-25T04:41:35.236Z,7.90
2019-04-25T04:42:35.184Z,7.20
2019-04-25T04:43:35.990Z,8.80
2019-04-25T04:44:35.702Z,6.50
2019-04-25T04:45:35.166Z,9.40
2019-04-25T04:46:35.197Z,10.40
2019-04-25T04:47:35.124Z,8.20
2019-04-25T04:48:35.169Z,8.30
2019-04-25T04:49:35.156Z,8.60
2019-04-25T04:50:35.116Z,10.40
2019-04-25T04:51:35.106Z,7.30
2019-04-25T04:52:35.132Z,9.90
2019-04-25T04:53:35.863Z,10.50
2019-04-25T04:54:35.153Z,8.20
2019-04-25T04:55:35.774Z,8.60
2019-04-25T04:56:35.395Z,8.60
2019-04-25T04:57:36.214Z,8.70
2019-04-25T04:58:35.163Z,9.30
2019-04-25T04:59:35.048Z,11.20
2019-04-25T05:00:35.261Z,10.30
2019-04-25T05:01:35.014Z,9.80
2019-04-25T05:02:35.062Z,12.30
2019-04-25T05:03:34.964Z,9.50
2019-04-25T05:04:35.496Z,9.70
2019-04-25T05:05:34.963Z,11.20
2019-04-25T05:06:35.580Z,10.40
2019-04-25T05:07:34.988Z,9.30
2019-04-25T05:08:35.665Z,9.80
2019-04-25T05:09:34.925Z,8.90
2019-04-25T05:10:34.903Z,11.40
2019-04-25T05:11:34.939Z,9.50
2019-04-25T05:12:34.902Z,9.70
2019-04-25T05:13:34.857Z,10.20
2019-04-25T05:14:34.854Z,11.30
2019-04-25T05:15:34.891Z,10.00
2019-04-25T05:16:34.852Z,8.50
2019-04-25T05:17:35.821Z,10.20
2019-04-25T05:18:39.468Z,10.20
2019-04-25T05:19:35.810Z,10.30
2019-04-25T05:20:35.611Z,9.70
2019-04-25T05:21:34.835Z,8.50
2019-04-25T05:22:34.837Z,10.50
2019-04-25T05:23:34.944Z,7.90
2019-04-25T05:24:34.823Z,7.70
2019-04-25T05:25:34.747Z,9.60
2019-04-25T05:26:34.871Z,7.00
2019-04-25T05:27:46.333Z,8.80
2019-04-25T05:28:35.875Z,8.00
2019-04-25T05:29:34.698Z,6.30
2019-04-25T05:30:34.751Z,7.30
2019-04-25T05:31:34.708Z,5.30
2019-04-25T05:32:34.704Z,5.40
2019-04-25T05:33:34.680Z,5.80
2019-04-25T05:34:34.828Z,5.60
2019-04-25T05:35:35.088Z,5.80
2019-04-25T05:36:34.631Z,5.30
2019-04-25T05:37:34.803Z,5.80
2019-04-25T05:38:34.612Z,7.50
2019-04-25T05:39:34.615Z,7.20
2019-04-25T05:40:34.563Z,6.50
2019-04-25T05:41:36.004Z,5.50
2019-04-25T05:42:34.547Z,9.00
2019-04-25T05:43:34.524Z,7.70
2019-04-25T05:44:34.545Z,9.30
2019-04-25T05:45:34.522Z,6.40
2019-04-25T05:46:34.487Z,10.10
2019-04-25T05:47:34.523Z,9.40
2019-04-25T05:48:34.483Z,5.70
2019-04-25T05:49:34.462Z,5.00
2019-04-25T05:50:34.540Z,5.90
2019-04-25T05:51:34.450Z,5.80
2019-04-25T05:52:34.464Z,4.70
2019-04-25T05:53:34.439Z,6.60
2019-04-25T05:54:34.540Z,4.80
2019-04-25T05:55:34.434Z,5.60
2019-04-25T05:56:34.409Z,5.00
2019-04-25T05:57:45.580Z,5.90
2019-04-25T05:58:35.420Z,5.60
2019-04-25T05:59:34.368Z,6.60
2019-04-25T06:00:34.399Z,7.10
2019-04-25T06:01:35.797Z,6.10
2019-04-25T06:02:34.316Z,5.00
2019-04-25T06:03:34.362Z,6.00
2019-04-25T06:04:34.303Z,6.30
2019-04-25T06:05:34.304Z,5.80
2019-04-25T06:06:36.650Z,4.70
2019-04-25T06:07:34.287Z,4.00
2019-04-25T06:08:34.321Z,4.40
2019-04-25T06:09:35.766Z,6.40
2019-04-25T06:10:34.268Z,8.50
2019-04-25T06:11:34.264Z,6.70
2019-04-25T06:12:34.237Z,5.20
2019-04-25T06:13:34.233Z,6.30
2019-04-25T06:14:34.198Z,7.70
2019-04-25T06:15:34.176Z,7.80
2019-04-25T06:16:34.188Z,4.50
2019-04-25T06:17:34.365Z,5.40
2019-04-25T06:18:34.167Z,7.10
2019-04-25T06:19:34.185Z,5.50
2019-04-25T06:20:34.379Z,5.30
2019-04-25T06:21:34.222Z,5.40
2019-04-25T06:22:34.154Z,5.90
2019-04-25T06:23:34.157Z,3.90
2019-04-25T06:24:34.348Z,4.70
2019-04-25T06:25:38.966Z,6.60
2019-04-25T06:26:39.611Z,7.90
2019-04-25T06:27:35.273Z,4.20
2019-04-25T06:28:34.642Z,3.90
2019-04-25T06:29:34.810Z,4.40
2019-04-25T06:30:35.241Z,6.20
2019-04-25T06:31:34.218Z,4.50
2019-04-25T06:32:35.347Z,5.70
2019-04-25T06:33:34.068Z,4.30
2019-04-25T06:34:37.162Z,5.50
2019-04-25T06:35:35.506Z,4.10
2019-04-25T06:36:35.361Z,4.20
2019-04-25T06:37:35.055Z,5.10
2019-04-25T06:38:34.047Z,4.20
2019-04-25T06:39:35.758Z,4.30
2019-04-25T06:40:34.560Z,5.20
2019-04-25T06:41:35.669Z,4.10
2019-04-25T06:42:35.632Z,4.60
2019-04-25T06:43:34.279Z,6.50
2019-04-25T06:44:34.592Z,3.90
2019-04-25T06:45:34.461Z,4.50
2019-04-25T06:46:34.009Z,3.30
2019-04-25T06:47:34.676Z,3.90
2019-04-25T06:48:35.063Z,3.40
2019-04-25T06:49:37.106Z,4.30
2019-04-25T06:50:35.284Z,2.50
2019-04-25T06:51:34.348Z,3.20
2019-04-25T06:52:37.301Z,4.80
2019-04-25T06:53:34.611Z,3.50
2019-04-25T06:54:35.124Z,4.50
2019-04-25T06:55:34.611Z,4.30
2019-04-25T06:56:34.498Z,3.60
2019-04-25T06:57:34.166Z,5.50
2019-04-25T06:58:34.275Z,3.60
2019-04-25T06:59:34.501Z,3.70
2019-04-25T07:00:40.573Z,4.00
2019-04-25T07:01:34.910Z,4.70
2019-04-25T07:02:35.181Z,5.90
2019-04-25T07:03:36.623Z,4.20
2019-04-25T07:04:34.789Z,3.90
2019-04-25T07:05:39.978Z,4.80
2019-04-25T07:06:34.754Z,4.10
2019-04-25T07:07:35.202Z,3.60
2019-04-25T07:08:35.383Z,6.10
2019-04-25T07:09:34.940Z,2.70
2019-04-25T07:10:34.852Z,4.10
2019-04-25T07:11:34.849Z,6.30
2019-04-25T07:12:35.823Z,5.80
2019-04-25T07:13:35.566Z,7.00
2019-04-25T07:14:36.668Z,2.60
2019-04-25T07:15:34.139Z,2.70
2019-04-25T07:16:34.629Z,3.30
2019-04-25T07:17:34.995Z,3.30
2019-04-25T07:18:36.316Z,1.40
2019-04-25T07:19:34.371Z,2.10
2019-04-25T07:20:34.590Z,1.80
2019-04-25T07:21:34.656Z,3.20
2019-04-25T07:22:34.792Z,3.40
2019-04-25T07:23:34.615Z,1.50
2019-04-25T07:24:35.032Z,4.20
2019-04-25T07:25:35.385Z,1.90
2019-04-25T07:26:37.726Z,2.20
2019-04-25T07:27:37.863Z,1.90
2019-04-25T07:28:35.686Z,3.20
2019-04-25T07:29:33.747Z,3.60
2019-04-25T07:30:48.439Z,3.20
2019-04-25T07:31:34.782Z,3.40
2019-04-25T07:32:34.846Z,2.40
2019-04-25T07:33:34.741Z,2.80
2019-04-25T07:34:34.120Z,1.90
2019-04-25T07:35:34.449Z,2.40
2019-04-25T07:36:34.789Z,3.40
2019-04-25T07:37:34.916Z,2.30
2019-04-25T07:38:34.069Z,1.90
2019-04-25T07:39:34.378Z,1.40
2019-04-25T07:40:34.012Z,2.10
2019-04-25T07:41:34.490Z,2.30
2019-04-25T07:42:34.255Z,1.60
2019-04-25T07:43:34.133Z,1.30
2019-04-25T07:44:41.941Z,1.40
2019-04-25T07:45:35.095Z,3.90
2019-04-25T07:46:37.291Z,1.60
2019-04-25T07:47:35.127Z,2.20
2019-04-25T07:48:36.320Z,3.30
2019-04-25T07:49:34.551Z,1.50
2019-04-25T07:50:34.297Z,4.60
2019-04-25T07:51:34.586Z,4.30
2019-04-25T07:52:34.304Z,3.30
2019-04-25T07:53:34.617Z,3.10
2019-04-25T07:54:34.397Z,3.50
2019-04-25T07:55:35.871Z,5.10
2019-04-25T07:56:35.180Z,3.20
2019-04-25T07:57:34.436Z,3.40
2019-04-25T07:58:45.290Z,2.90
2019-04-25T07:59:35.993Z,5.10
2019-04-25T08:00:35.144Z,4.90
2019-04-25T08:01:33.501Z,3.20
2019-04-25T08:02:34.112Z,2.90
2019-04-25T08:03:34.413Z,1.70
2019-04-25T08:04:34.867Z,2.70
2019-04-25T08:05:35.122Z,2.10
2019-04-25T08:06:34.455Z,2.40
2019-04-25T08:07:33.952Z,3.40
2019-04-25T08:08:33.956Z,3.10
2019-04-25T08:09:35.266Z,3.60
2019-04-25T08:10:33.872Z,2.70
2019-04-25T08:11:34.144Z,2.40
2019-04-25T08:12:34.686Z,3.60
2019-04-25T08:13:34.264Z,2.90
2019-04-25T08:14:34.179Z,3.00
2019-04-25T08:15:33.901Z,6.10
2019-04-25T08:16:34.340Z,5.40
2019-04-25T08:17:35.804Z,4.90
2019-04-25T08:18:32.913Z,4.20
2019-04-25T08:19:33.521Z,4.40
2019-04-25T08:20:34.445Z,2.90
2019-04-25T08:21:34.431Z,1.90
2019-04-25T08:22:34.491Z,3.70
2019-04-25T08:23:36.684Z,3.70
2019-04-25T08:24:34.599Z,5.60
2019-04-25T08:25:33.789Z,3.10
2019-04-25T08:26:34.802Z,5.30
2019-04-25T08:27:34.162Z,5.80
2019-04-25T08:28:34.465Z,2.60
2019-04-25T08:29:36.318Z,3.90
2019-04-25T08:30:34.987Z,3.20
2019-04-25T08:31:34.825Z,5.30
2019-04-25T08:32:35.102Z,5.20
2019-04-25T08:33:34.273Z,3.60
2019-04-25T08:34:34.420Z,3.70
2019-04-25T08:35:34.214Z,3.70
2019-04-25T08:36:33.808Z,2.70
2019-04-25T08:37:34.476Z,3.50
2019-04-25T08:38:34.496Z,3.60
2019-04-25T08:39:34.411Z,3.20
2019-04-25T08:40:35.675Z,5.30
2019-04-25T08:41:34.806Z,3.90
2019-04-25T08:42:34.578Z,4.10
2019-04-25T08:43:34.812Z,4.10
2019-04-25T08:44:34.773Z,3.60
2019-04-25T08:45:33.549Z,2.50
2019-04-25T08:46:35.151Z,2.80
2019-04-25T08:47:34.708Z,4.40
2019-04-25T08:48:34.334Z,5.50
2019-04-25T08:49:34.501Z,4.80
2019-04-25T08:50:34.816Z,4.10
2019-04-25T08:51:34.793Z,3.70
2019-04-25T08:52:35.045Z,2.60
2019-04-25T08:53:34.483Z,2.00
2019-04-25T08:54:34.341Z,3.50
2019-04-25T08:55:34.390Z,5.00
2019-04-25T08:56:34.245Z,3.50
2019-04-25T08:57:33.876Z,4.90
2019-04-25T08:58:34.466Z,6.10
2019-04-25T08:59:39.696Z,2.00
2019-04-25T09:00:35.714Z,2.90
2019-04-25T09:01:34.611Z,3.90
2019-04-25T09:02:36.025Z,2.60
2019-04-25T09:03:34.023Z,3.30
2019-04-25T09:04:33.199Z,4.40
2019-04-25T09:05:33.368Z,4.20
2019-04-25T09:06:33.323Z,3.10
2019-04-25T09:07:34.909Z,2.70
2019-04-25T09:08:32.902Z,4.80
2019-04-25T09:09:35.025Z,4.60
2019-04-25T09:10:35.253Z,3.40
2019-04-25T09:11:33.409Z,2.10
2019-04-25T09:12:35.197Z,1.90
2019-04-25T09:13:33.053Z,2.40
2019-04-25T09:14:32.419Z,1.90
2019-04-25T09:15:33.005Z,3.60
2019-04-25T09:16:34.519Z,3.60
2019-04-25T09:17:33.187Z,5.00
2019-04-25T09:18:34.720Z,4.70
2019-04-25T09:19:33.591Z,4.20
2019-04-25T09:20:34.827Z,3.10
2019-04-25T09:21:34.155Z,3.20
2019-04-25T09:22:32.223Z,3.00
2019-04-25T09:23:34.406Z,1.90
2019-04-25T09:24:32.167Z,5.20
2019-04-25T09:25:34.544Z,3.00
2019-04-25T09:26:33.952Z,2.40
2019-04-25T09:27:34.328Z,3.90
2019-04-25T09:28:34.741Z,2.40
2019-04-25T09:29:34.384Z,2.70
2019-04-25T09:30:32.136Z,3.60
2019-04-25T09:31:34.542Z,6.90
2019-04-25T09:32:33.708Z,4.70
2019-04-25T09:33:32.101Z,2.30
2019-04-25T09:34:33.523Z,3.10
2019-04-25T09:35:33.500Z,3.50
2019-04-25T09:36:33.517Z,1.90
2019-04-25T09:37:33.484Z,5.10
2019-04-25T09:38:32.034Z,5.20
2019-04-25T09:39:33.612Z,4.40
2019-04-25T09:40:32.076Z,7.40
2019-04-25T09:41:33.501Z,6.80
2019-04-25T09:42:33.678Z,6.60
2019-04-25T09:43:33.408Z,3.60
2019-04-25T09:44:32.019Z,4.00
2019-04-25T09:45:33.473Z,1.90
2019-04-25T09:46:32.018Z,5.00
2019-04-25T09:47:33.436Z,2.40
2019-04-25T09:48:34.332Z,2.60
2019-04-25T09:49:34.976Z,1.40
2019-04-25T09:50:31.969Z,3.60
2019-04-25T09:51:33.463Z,1.70
2019-04-25T09:52:31.918Z,5.10
2019-04-25T09:53:31.902Z,2.50
2019-04-25T09:54:33.316Z,2.80
2019-04-25T09:55:31.838Z,2.50
2019-04-25T09:56:31.898Z,2.90
2019-04-25T09:57:33.389Z,3.00
2019-04-25T09:58:31.816Z,1.60
2019-04-25T09:59:33.197Z,1.50
2019-04-25T10:00:33.340Z,2.80
2019-04-25T10:01:31.810Z,1.80
2019-04-25T10:02:31.845Z,2.10
2019-04-25T10:03:33.270Z,2.40
2019-04-25T10:04:34.498Z,1.30
2019-04-25T10:05:33.929Z,1.80
2019-04-25T10:06:33.213Z,1.90
2019-04-25T10:07:31.747Z,2.40
2019-04-25T10:08:31.722Z,1.40
2019-04-25T10:09:31.776Z,1.50
2019-04-25T10:10:31.707Z,1.50
2019-04-25T10:11:33.423Z,1.50
2019-04-25T10:12:31.691Z,1.80
2019-04-25T10:13:31.718Z,2.50
2019-04-25T10:14:31.639Z,1.90
2019-04-25T10:15:31.633Z,3.10
2019-04-25T10:16:31.657Z,2.90
2019-04-25T10:17:31.619Z,2.20
2019-04-25T10:18:33.333Z,2.30
2019-04-25T10:19:31.624Z,1.80
2019-04-25T10:20:33.282Z,2.40
2019-04-25T10:21:31.587Z,3.30
2019-04-25T10:22:31.583Z,2.00
2019-04-25T10:23:31.582Z,2.60
2019-04-25T10:24:31.600Z,1.60
2019-04-25T10:25:33.136Z,3.80
2019-04-25T10:26:31.528Z,2.60
2019-04-25T10:27:31.533Z,3.10
2019-04-25T10:28:31.523Z,4.80
2019-04-25T10:29:41.601Z,1.60
2019-04-25T10:30:34.204Z,2.10
2019-04-25T10:31:41.275Z,2.40
2019-04-25T10:32:31.457Z,2.90
2019-04-25T10:33:31.420Z,2.00
2019-04-25T10:34:31.431Z,2.40
2019-04-25T10:35:34.226Z,2.80
2019-04-25T10:36:33.623Z,1.90
2019-04-25T10:37:31.380Z,3.60
2019-04-25T10:38:31.393Z,4.40
2019-04-25T10:39:31.383Z,2.90
2019-04-25T10:40:31.359Z,2.70
2019-04-25T10:41:31.373Z,3.20
2019-04-25T10:42:31.347Z,2.50
2019-04-25T10:43:31.329Z,2.50
2019-04-25T10:44:31.302Z,3.40
2019-04-25T10:45:31.317Z,3.20
2019-04-25T10:46:31.298Z,2.40
2019-04-25T10:47:31.297Z,2.30
2019-04-25T10:48:31.320Z,2.20
2019-04-25T10:49:31.244Z,1.50
2019-04-25T10:50:31.249Z,2.80
2019-04-25T10:51:31.243Z,3.10
2019-04-25T10:52:33.649Z,2.10
2019-04-25T10:53:31.310Z,2.20
2019-04-25T10:54:31.230Z,2.10
2019-04-25T10:55:31.201Z,3.30
2019-04-25T10:56:31.200Z,2.00
2019-04-25T10:57:31.187Z,2.70
2019-04-25T10:58:31.190Z,2.50
2019-04-25T10:59:32.707Z,3.80
2019-04-25T11:00:31.509Z,3.20
2019-04-25T11:01:31.158Z,2.30
2019-04-25T11:02:31.189Z,2.40
2019-04-25T11:03:31.156Z,1.60
2019-04-25T11:04:31.149Z,1.80
2019-04-25T11:05:31.605Z,2.40
2019-04-25T11:06:33.459Z,2.70
2019-04-25T11:07:31.712Z,2.30
2019-04-25T11:08:33.850Z,2.40
2019-04-25T11:09:31.378Z,2.40
2019-04-25T11:10:31.803Z,1.80
2019-04-25T11:11:31.043Z,1.30
2019-04-25T11:12:31.087Z,4.00
2019-04-25T11:13:31.249Z,3.20
2019-04-25T11:14:31.712Z,2.30
2019-04-25T11:15:33.989Z,3.00
2019-04-25T11:16:33.271Z,2.20
2019-04-25T11:17:33.889Z,3.00
2019-04-25T11:18:33.986Z,3.10
2019-04-25T11:19:30.951Z,3.20
2019-04-25T11:20:31.720Z,1.50
2019-04-25T11:21:30.966Z,1.90
2019-04-25T11:22:30.953Z,2.00
2019-04-25T11:23:30.975Z,3.80
2019-04-25T11:24:31.715Z,3.20
2019-04-25T11:25:30.889Z,2.10
2019-04-25T11:26:34.430Z,2.60
2019-04-25T11:27:31.036Z,2.10
2019-04-25T11:28:30.991Z,1.80
2019-04-25T11:29:31.013Z,1.60
2019-04-25T11:30:30.995Z,2.20
2019-04-25T11:31:30.886Z,1.30
2019-04-25T11:32:31.725Z,2.10
2019-04-25T11:33:33.456Z,2.30
2019-04-25T11:34:30.970Z,3.00
2019-04-25T11:35:30.819Z,2.20
2019-04-25T11:36:31.118Z,3.40
2019-04-25T11:37:30.848Z,3.90
2019-04-25T11:38:30.976Z,3.30
2019-04-25T11:39:30.915Z,2.90
2019-04-25T11:40:30.784Z,5.70
2019-04-25T11:41:30.761Z,4.20
2019-04-25T11:42:30.980Z,5.10
2019-04-25T11:43:30.705Z,3.80
2019-04-25T11:44:30.755Z,4.10
2019-04-25T11:45:30.743Z,2.80
2019-04-25T11:46:30.766Z,2.10
2019-04-25T11:47:31.444Z,2.90
2019-04-25T11:48:34.000Z,2.90
2019-04-25T11:49:30.952Z,2.80
2019-04-25T11:50:30.685Z,2.90
2019-04-25T11:51:30.989Z,2.00
2019-04-25T11:52:33.489Z,2.80
2019-04-25T11:53:33.759Z,2.20
2019-04-25T11:54:30.654Z,2.40
2019-04-25T11:55:30.706Z,2.20
2019-04-25T11:56:30.577Z,7.40
2019-04-25T11:57:30.572Z,3.90
2019-04-25T11:58:30.597Z,3.60
2019-04-25T11:59:30.555Z,5.40
2019-04-25T12:00:30.644Z,2.90
2019-04-25T12:01:30.517Z,2.90
2019-04-25T12:02:30.751Z,1.60
2019-04-25T12:03:30.604Z,3.00
2019-04-25T12:04:30.643Z,3.00
2019-04-25T12:05:30.485Z,2.30
2019-04-25T12:06:30.490Z,2.70
2019-04-25T12:07:30.472Z,3.40
2019-04-25T12:08:30.445Z,2.10
2019-04-25T12:09:33.311Z,2.60
2019-04-25T12:10:30.544Z,3.60
2019-04-25T12:11:30.515Z,1.80
2019-04-25T12:12:30.453Z,2.50
2019-04-25T12:13:30.378Z,2.70
2019-04-25T12:14:30.407Z,2.10
2019-04-25T12:15:30.375Z,1.30
2019-04-25T12:16:30.540Z,2.20
2019-04-25T12:17:30.363Z,2.20
2019-04-25T12:18:33.232Z,1.90
2019-04-25T12:19:35.826Z,5.90
2019-04-25T12:20:31.338Z,1.60
2019-04-25T12:21:30.345Z,2.70
2019-04-25T12:22:30.330Z,2.40
2019-04-25T12:23:30.390Z,4.70
2019-04-25T12:24:30.309Z,2.10
2019-04-25T12:25:30.259Z,2.40
2019-04-25T12:26:30.264Z,3.20
2019-04-25T12:27:30.462Z,3.00
2019-04-25T12:28:30.264Z,3.00
2019-04-25T12:29:30.285Z,1.70
2019-04-25T12:30:39.526Z,1.30
2019-04-25T12:31:31.232Z,1.70
2019-04-25T12:32:30.247Z,1.90
2019-04-25T12:33:30.176Z,2.80
2019-04-25T12:34:30.178Z,1.80
2019-04-25T12:35:30.173Z,2.10
2019-04-25T12:36:30.167Z,3.20
2019-04-25T12:37:30.159Z,2.80
2019-04-25T12:38:30.169Z,2.00
2019-04-25T12:39:30.162Z,1.70
2019-04-25T12:40:30.141Z,2.80
2019-04-25T12:41:30.397Z,3.30
2019-04-25T12:42:30.107Z,1.60
2019-04-25T12:43:30.112Z,1.20
2019-04-25T12:44:30.121Z,1.50
2019-04-25T12:45:30.101Z,1.70
2019-04-25T12:46:30.203Z,1.50
2019-04-25T12:47:30.375Z,1.90
2019-04-25T12:48:30.084Z,1.60
2019-04-25T12:49:30.960Z,2.60
2019-04-25T12:50:30.083Z,2.50
2019-04-25T12:51:30.047Z,2.10
2019-04-25T12:52:30.898Z,2.00
2019-04-25T12:53:30.227Z,5.40
2019-04-25T12:54:30.186Z,3.40
2019-04-25T12:55:30.914Z,2.30
2019-04-25T12:56:30.892Z,2.00
2019-04-25T12:57:30.222Z,2.20
2019-04-25T12:58:30.040Z,2.80
2019-04-25T12:59:30.422Z,1.30
2019-04-25T13:00:30.836Z,1.40
2019-04-25T13:01:30.175Z,3.10
2019-04-25T13:02:33.565Z,1.80
2019-04-25T13:03:30.904Z,2.90
2019-04-25T13:04:30.331Z,1.40
2019-04-25T13:05:30.884Z,3.00
2019-04-25T13:06:30.757Z,2.10
2019-04-25T13:07:30.062Z,1.70
2019-04-25T13:08:30.068Z,1.90
2019-04-25T13:09:29.864Z,3.90